CFG637 EGKK-EDDM
Flight info
| Callsign | CFG637 |
|---|---|
| Flight time | 1h 21m |
| Altitude | 23000 |
| Route | DVR L9 KONAN/N0463F390 UL607 SPI DCT MOVUM T109 HAREM/N0377F230 T104 ROKIL ROKIL1A |
| Aircraft | A339/H-SADE1E2E3GHIJ3J5M1P2RWXY/LB2D1 |
Departure
| Time | 2026-05-06 12:52 |
|---|---|
| Airport | London Gatwick Airport (EGKK) |
Arrival
| Time | 2026-05-06 14:13 |
|---|---|
| Airport | Munich Airport (EDDM) |
| Time | Latitude | Longitude | Altitude | Speed | Heading |
|---|---|---|---|---|---|
| 2026-05-06 12:16 | 51.15524 | -0.18565 | 211 ft | 0 kts | 167° |
| 2026-05-06 12:39 | 51.15534 | -0.18568 | 217 ft | 3 kts | 166° |
| 2026-05-06 12:39 | 51.15553 | -0.18576 | 217 ft | 3 kts | 163° |
| 2026-05-06 12:39 | 51.15571 | -0.18584 | 214 ft | 2 kts | 165° |
| 2026-05-06 12:39 | 51.15587 | -0.18593 | 218 ft | 3 kts | 184° |
| 2026-05-06 12:40 | 51.15601 | -0.18593 | 212 ft | 3 kts | 219° |
| 2026-05-06 12:40 | 51.15613 | -0.18577 | 219 ft | 3 kts | 250° |
| 2026-05-06 12:40 | 51.15620 | -0.18547 | 211 ft | 3 kts | 257° |
| 2026-05-06 12:40 | 51.15621 | -0.18535 | 211 ft | 0 kts | 257° |
| 2026-05-06 12:43 | 51.15615 | -0.18579 | 220 ft | 9 kts | 257° |
| 2026-05-06 12:44 | 51.15598 | -0.18701 | 216 ft | 13 kts | 258° |
| 2026-05-06 12:44 | 51.15548 | -0.18816 | 217 ft | 12 kts | 197° |
| 2026-05-06 12:44 | 51.15457 | -0.18795 | 215 ft | 15 kts | 168° |
| 2026-05-06 12:44 | 51.15342 | -0.18752 | 216 ft | 19 kts | 167° |
| 2026-05-06 12:45 | 51.15216 | -0.18709 | 219 ft | 16 kts | 168° |
| 2026-05-06 12:45 | 51.15134 | -0.18750 | 216 ft | 12 kts | 234° |
| 2026-05-06 12:45 | 51.15083 | -0.19083 | 218 ft | 19 kts | 257° |
| 2026-05-06 12:46 | 51.15052 | -0.19310 | 217 ft | 23 kts | 259° |
| 2026-05-06 12:46 | 51.15016 | -0.19570 | 218 ft | 26 kts | 257° |
| 2026-05-06 12:46 | 51.14980 | -0.19827 | 217 ft | 5 kts | 258° |
| 2026-05-06 12:46 | 51.14975 | -0.19866 | 217 ft | 6 kts | 258° |
| 2026-05-06 12:47 | 51.14962 | -0.19959 | 209 ft | 11 kts | 258° |
| 2026-05-06 12:47 | 51.14949 | -0.20057 | 211 ft | 10 kts | 258° |
| 2026-05-06 12:47 | 51.14930 | -0.20194 | 215 ft | 15 kts | 258° |
| 2026-05-06 12:47 | 51.14906 | -0.20374 | 214 ft | 19 kts | 257° |
| 2026-05-06 12:48 | 51.14874 | -0.20593 | 215 ft | 22 kts | 257° |
| 2026-05-06 12:48 | 51.14839 | -0.20848 | 218 ft | 25 kts | 258° |
| 2026-05-06 12:48 | 51.14815 | -0.21036 | 214 ft | 7 kts | 258° |
| 2026-05-06 12:48 | 51.14807 | -0.21091 | 210 ft | 2 kts | 258° |
| 2026-05-06 12:49 | 51.14799 | -0.21132 | 217 ft | 6 kts | 250° |
| 2026-05-06 12:49 | 51.14779 | -0.21220 | 211 ft | 11 kts | 250° |
| 2026-05-06 12:49 | 51.14762 | -0.21341 | 208 ft | 9 kts | 258° |
| 2026-05-06 12:49 | 51.14711 | -0.21392 | 216 ft | 10 kts | 183° |
| 2026-05-06 12:50 | 51.14664 | -0.21357 | 217 ft | 1 kts | 149° |
| 2026-05-06 12:50 | 51.14654 | -0.21347 | 218 ft | 4 kts | 149° |
| 2026-05-06 12:50 | 51.14623 | -0.21330 | 217 ft | 0 kts | 163° |
| 2026-05-06 12:50 | 51.14615 | -0.21327 | 216 ft | 3 kts | 163° |
| 2026-05-06 12:51 | 51.14589 | -0.21314 | 216 ft | 5 kts | 163° |
| 2026-05-06 12:51 | 51.14565 | -0.21296 | 215 ft | 8 kts | 151° |
| 2026-05-06 12:51 | 51.14519 | -0.21165 | 216 ft | 12 kts | 95° |
| 2026-05-06 12:51 | 51.14522 | -0.21117 | 212 ft | 8 kts | 82° |
| 2026-05-06 12:52 | 51.14624 | -0.20369 | 216 ft | 126 kts | 77° |
| 2026-05-06 12:52 | 51.14863 | -0.18602 | 557 ft | 184 kts | 76° |
| 2026-05-06 12:52 | 51.15026 | -0.17247 | 1276 ft | 192 kts | 75° |
| 2026-05-06 12:52 | 51.15304 | -0.15090 | 2482 ft | 203 kts | 74° |
| 2026-05-06 12:53 | 51.15615 | -0.12865 | 3710 ft | 208 kts | 73° |
| 2026-05-06 12:53 | 51.15944 | -0.10609 | 4838 ft | 214 kts | 72° |
| 2026-05-06 12:53 | 51.16307 | -0.08168 | 5514 ft | 239 kts | 72° |
| 2026-05-06 12:53 | 51.16812 | -0.04522 | 6262 ft | 270 kts | 76° |
| 2026-05-06 12:54 | 51.16925 | -0.02465 | 6749 ft | 280 kts | 86° |
| 2026-05-06 12:54 | 51.16850 | 0.00637 | 7827 ft | 278 kts | 90° |
| 2026-05-06 12:54 | 51.16769 | 0.03741 | 8777 ft | 283 kts | 90° |
| 2026-05-06 12:54 | 51.16701 | 0.06914 | 9675 ft | 290 kts | 89° |
| 2026-05-06 12:55 | 51.16641 | 0.10121 | 10527 ft | 296 kts | 89° |
| 2026-05-06 12:55 | 51.16583 | 0.13420 | 11441 ft | 299 kts | 89° |
| 2026-05-06 12:55 | 51.16525 | 0.16757 | 12345 ft | 302 kts | 89° |
| 2026-05-06 12:55 | 51.16515 | 0.20158 | 13131 ft | 311 kts | 87° |
| 2026-05-06 12:56 | 51.16539 | 0.23629 | 14001 ft | 314 kts | 87° |
| 2026-05-06 12:56 | 51.16567 | 0.27131 | 14824 ft | 317 kts | 88° |
| 2026-05-06 12:56 | 51.16585 | 0.30667 | 15607 ft | 322 kts | 89° |
| 2026-05-06 12:56 | 51.16594 | 0.34292 | 16294 ft | 330 kts | 89° |
| 2026-05-06 12:57 | 51.16599 | 0.37949 | 17197 ft | 331 kts | 89° |
| 2026-05-06 12:57 | 51.16599 | 0.41653 | 17742 ft | 338 kts | 89° |
| 2026-05-06 12:57 | 51.16595 | 0.45425 | 17975 ft | 341 kts | 90° |
| 2026-05-06 12:57 | 51.16590 | 0.49181 | 18078 ft | 338 kts | 90° |
| 2026-05-06 12:58 | 51.16586 | 0.52992 | 18217 ft | 353 kts | 90° |
| 2026-05-06 12:58 | 51.16584 | 0.57008 | 18429 ft | 373 kts | 90° |
| 2026-05-06 12:58 | 51.16581 | 0.61175 | 18666 ft | 388 kts | 90° |
| 2026-05-06 12:58 | 51.16578 | 0.65498 | 19221 ft | 393 kts | 90° |
| 2026-05-06 12:59 | 51.16572 | 0.69900 | 19728 ft | 400 kts | 90° |
| 2026-05-06 12:59 | 51.16563 | 0.74332 | 20470 ft | 400 kts | 90° |
| 2026-05-06 12:59 | 51.16553 | 0.78767 | 21114 ft | 403 kts | 90° |
| 2026-05-06 12:59 | 51.16540 | 0.83271 | 21644 ft | 409 kts | 91° |
| 2026-05-06 13:00 | 51.16526 | 0.87811 | 22356 ft | 410 kts | 91° |
| 2026-05-06 13:00 | 51.16510 | 0.92390 | 22815 ft | 417 kts | 91° |
| 2026-05-06 13:00 | 51.16493 | 0.97005 | 22943 ft | 418 kts | 91° |
| 2026-05-06 13:00 | 51.16472 | 1.01745 | 22960 ft | 431 kts | 91° |
| 2026-05-06 13:01 | 51.16449 | 1.06518 | 22960 ft | 429 kts | 91° |
| 2026-05-06 13:01 | 51.16425 | 1.11262 | 22956 ft | 429 kts | 91° |
| 2026-05-06 13:01 | 51.16399 | 1.15962 | 22960 ft | 430 kts | 91° |
| 2026-05-06 13:01 | 51.16371 | 1.20721 | 22959 ft | 429 kts | 91° |
| 2026-05-06 13:02 | 51.16341 | 1.25468 | 22955 ft | 429 kts | 91° |
| 2026-05-06 13:02 | 51.16309 | 1.30234 | 22955 ft | 430 kts | 91° |
| 2026-05-06 13:02 | 51.16275 | 1.34993 | 22952 ft | 428 kts | 92° |
| 2026-05-06 13:02 | 51.16089 | 1.39730 | 22947 ft | 429 kts | 96° |
| 2026-05-06 13:03 | 51.15854 | 1.44478 | 22952 ft | 429 kts | 95° |
| 2026-05-06 13:03 | 51.15626 | 1.49219 | 22949 ft | 428 kts | 95° |
| 2026-05-06 13:03 | 51.15402 | 1.53948 | 22945 ft | 429 kts | 95° |
| 2026-05-06 13:03 | 51.15174 | 1.58698 | 22944 ft | 429 kts | 95° |
| 2026-05-06 13:04 | 51.14943 | 1.63417 | 22946 ft | 426 kts | 95° |
| 2026-05-06 13:04 | 51.14710 | 1.68142 | 22947 ft | 429 kts | 95° |
| 2026-05-06 13:04 | 51.14475 | 1.72872 | 22946 ft | 428 kts | 95° |
| 2026-05-06 13:04 | 51.14237 | 1.77594 | 22943 ft | 428 kts | 95° |
| 2026-05-06 13:05 | 51.13999 | 1.82285 | 22943 ft | 431 kts | 95° |
| 2026-05-06 13:05 | 51.13756 | 1.87026 | 22939 ft | 427 kts | 96° |
| 2026-05-06 13:05 | 51.13512 | 1.91742 | 22949 ft | 428 kts | 95° |
| 2026-05-06 13:05 | 51.13265 | 1.96478 | 22937 ft | 431 kts | 95° |
| 2026-05-06 13:06 | 51.13017 | 2.01217 | 22936 ft | 426 kts | 95° |
| 2026-05-06 13:06 | 51.12769 | 2.05921 | 22937 ft | 428 kts | 95° |
| 2026-05-06 13:06 | 51.12517 | 2.10659 | 22936 ft | 430 kts | 95° |
| 2026-05-06 13:06 | 51.12263 | 2.15389 | 22951 ft | 425 kts | 95° |
| 2026-05-06 13:07 | 51.12008 | 2.20097 | 22952 ft | 430 kts | 96° |
| 2026-05-06 13:07 | 51.11749 | 2.24846 | 22952 ft | 430 kts | 95° |
| 2026-05-06 13:07 | 51.11494 | 2.29508 | 22936 ft | 427 kts | 96° |
| 2026-05-06 13:07 | 51.11233 | 2.34238 | 22949 ft | 431 kts | 96° |
| 2026-05-06 13:08 | 51.10968 | 2.38985 | 22953 ft | 427 kts | 95° |
| 2026-05-06 13:08 | 51.10705 | 2.43672 | 22947 ft | 427 kts | 96° |
| 2026-05-06 13:08 | 51.10438 | 2.48398 | 22945 ft | 431 kts | 96° |
| 2026-05-06 13:08 | 51.10168 | 2.53130 | 22939 ft | 426 kts | 96° |
| 2026-05-06 13:09 | 51.09898 | 2.57817 | 22936 ft | 426 kts | 96° |
| 2026-05-06 13:09 | 51.09621 | 2.62549 | 22935 ft | 429 kts | 97° |
| 2026-05-06 13:09 | 51.09114 | 2.67201 | 22931 ft | 425 kts | 104° |
| 2026-05-06 13:09 | 51.08303 | 2.71721 | 22928 ft | 426 kts | 108° |
| 2026-05-06 13:10 | 51.07466 | 2.76257 | 22932 ft | 429 kts | 107° |
| 2026-05-06 13:10 | 51.06639 | 2.80788 | 22935 ft | 425 kts | 107° |
| 2026-05-06 13:10 | 51.05820 | 2.85298 | 22932 ft | 426 kts | 107° |
| 2026-05-06 13:10 | 51.04997 | 2.89829 | 22947 ft | 426 kts | 107° |
| 2026-05-06 13:11 | 51.04170 | 2.94364 | 22930 ft | 426 kts | 107° |
| 2026-05-06 13:11 | 51.03345 | 2.98876 | 22935 ft | 424 kts | 107° |
| 2026-05-06 13:11 | 51.02517 | 3.03392 | 22930 ft | 426 kts | 107° |
| 2026-05-06 13:11 | 51.01696 | 3.07863 | 22928 ft | 427 kts | 107° |
| 2026-05-06 13:12 | 51.00865 | 3.12368 | 22925 ft | 425 kts | 107° |
| 2026-05-06 13:12 | 51.00032 | 3.16876 | 22935 ft | 426 kts | 107° |
| 2026-05-06 13:12 | 50.99194 | 3.21401 | 22918 ft | 428 kts | 107° |
| 2026-05-06 13:12 | 50.98353 | 3.25932 | 22923 ft | 425 kts | 107° |
| 2026-05-06 13:13 | 50.97516 | 3.30424 | 22919 ft | 425 kts | 107° |
| 2026-05-06 13:13 | 50.96674 | 3.34932 | 22910 ft | 426 kts | 107° |
| 2026-05-06 13:13 | 50.95829 | 3.39452 | 22900 ft | 426 kts | 107° |
| 2026-05-06 13:13 | 50.94985 | 3.43956 | 22897 ft | 425 kts | 107° |
| 2026-05-06 13:14 | 50.94141 | 3.48450 | 22915 ft | 426 kts | 107° |
| 2026-05-06 13:14 | 50.93292 | 3.52957 | 22898 ft | 427 kts | 107° |
| 2026-05-06 13:14 | 50.92441 | 3.57459 | 22903 ft | 426 kts | 107° |
| 2026-05-06 13:14 | 50.91591 | 3.61949 | 22897 ft | 425 kts | 108° |
| 2026-05-06 13:15 | 50.90737 | 3.66449 | 22896 ft | 426 kts | 108° |
| 2026-05-06 13:15 | 50.89872 | 3.70952 | 22897 ft | 426 kts | 108° |
| 2026-05-06 13:15 | 50.89006 | 3.75433 | 22893 ft | 425 kts | 108° |
| 2026-05-06 13:15 | 50.88149 | 3.79864 | 22890 ft | 427 kts | 108° |
| 2026-05-06 13:16 | 50.87278 | 3.84358 | 22889 ft | 428 kts | 108° |
| 2026-05-06 13:16 | 50.86403 | 3.88867 | 22905 ft | 426 kts | 108° |
| 2026-05-06 13:16 | 50.85534 | 3.93333 | 22901 ft | 424 kts | 108° |
| 2026-05-06 13:16 | 50.84660 | 3.97822 | 22887 ft | 428 kts | 108° |
| 2026-05-06 13:17 | 50.83782 | 4.02313 | 22899 ft | 426 kts | 108° |
| 2026-05-06 13:17 | 50.82906 | 4.06786 | 22879 ft | 425 kts | 108° |
| 2026-05-06 13:17 | 50.82031 | 4.11247 | 22895 ft | 427 kts | 108° |
| 2026-05-06 13:17 | 50.81148 | 4.15739 | 22877 ft | 429 kts | 108° |
| 2026-05-06 13:18 | 50.80264 | 4.20213 | 22881 ft | 425 kts | 108° |
| 2026-05-06 13:18 | 50.79385 | 4.24652 | 22886 ft | 422 kts | 108° |
| 2026-05-06 13:18 | 50.78515 | 4.29043 | 22877 ft | 424 kts | 108° |
| 2026-05-06 13:18 | 50.77631 | 4.33495 | 22883 ft | 424 kts | 108° |
| 2026-05-06 13:19 | 50.76748 | 4.37933 | 22876 ft | 422 kts | 108° |
| 2026-05-06 13:19 | 50.75864 | 4.42369 | 22891 ft | 425 kts | 108° |
| 2026-05-06 13:19 | 50.74975 | 4.46820 | 22891 ft | 425 kts | 108° |
| 2026-05-06 13:19 | 50.74085 | 4.51259 | 22888 ft | 424 kts | 108° |
| 2026-05-06 13:20 | 50.73195 | 4.55689 | 22891 ft | 422 kts | 108° |
| 2026-05-06 13:20 | 50.72303 | 4.60120 | 22890 ft | 425 kts | 108° |
| 2026-05-06 13:20 | 50.71418 | 4.64586 | 22875 ft | 425 kts | 107° |
| 2026-05-06 13:20 | 50.70563 | 4.69017 | 22867 ft | 419 kts | 107° |
| 2026-05-06 13:21 | 50.69720 | 4.73413 | 22881 ft | 419 kts | 107° |
| 2026-05-06 13:21 | 50.68870 | 4.77827 | 22866 ft | 420 kts | 108° |
| 2026-05-06 13:21 | 50.68014 | 4.82235 | 22878 ft | 419 kts | 108° |
| 2026-05-06 13:21 | 50.67155 | 4.86633 | 22882 ft | 419 kts | 108° |
| 2026-05-06 13:22 | 50.66296 | 4.91027 | 22864 ft | 420 kts | 108° |
| 2026-05-06 13:22 | 50.65422 | 4.95423 | 22878 ft | 419 kts | 108° |
| 2026-05-06 13:22 | 50.64524 | 4.99794 | 22878 ft | 419 kts | 108° |
| 2026-05-06 13:22 | 50.63617 | 5.04174 | 22869 ft | 420 kts | 109° |
| 2026-05-06 13:23 | 50.62724 | 5.08487 | 22853 ft | 420 kts | 109° |
| 2026-05-06 13:23 | 50.61821 | 5.12850 | 22876 ft | 419 kts | 109° |
| 2026-05-06 13:23 | 50.60913 | 5.17228 | 22871 ft | 420 kts | 108° |
| 2026-05-06 13:23 | 50.60004 | 5.21620 | 22850 ft | 421 kts | 108° |
| 2026-05-06 13:24 | 50.59094 | 5.26013 | 22870 ft | 421 kts | 108° |
| 2026-05-06 13:24 | 50.58184 | 5.30386 | 22859 ft | 420 kts | 108° |
| 2026-05-06 13:24 | 50.57273 | 5.34753 | 22851 ft | 421 kts | 108° |
| 2026-05-06 13:24 | 50.56361 | 5.39120 | 22861 ft | 421 kts | 108° |
| 2026-05-06 13:25 | 50.55445 | 5.43496 | 22847 ft | 420 kts | 108° |
| 2026-05-06 13:25 | 50.54527 | 5.47869 | 22862 ft | 419 kts | 108° |
| 2026-05-06 13:25 | 50.53610 | 5.52230 | 22862 ft | 421 kts | 108° |
| 2026-05-06 13:25 | 50.52688 | 5.56607 | 22862 ft | 421 kts | 109° |
| 2026-05-06 13:26 | 50.51777 | 5.60915 | 22843 ft | 422 kts | 108° |
| 2026-05-06 13:26 | 50.50869 | 5.65306 | 22858 ft | 421 kts | 107° |
| 2026-05-06 13:26 | 50.50060 | 5.69714 | 22854 ft | 421 kts | 106° |
| 2026-05-06 13:26 | 50.49284 | 5.74156 | 22858 ft | 421 kts | 105° |
| 2026-05-06 13:27 | 50.48510 | 5.78582 | 22849 ft | 420 kts | 105° |
| 2026-05-06 13:27 | 50.47722 | 5.83024 | 22846 ft | 421 kts | 106° |
| 2026-05-06 13:27 | 50.46924 | 5.87454 | 22851 ft | 422 kts | 106° |
| 2026-05-06 13:27 | 50.46121 | 5.91873 | 22850 ft | 421 kts | 106° |
| 2026-05-06 13:28 | 50.45313 | 5.96289 | 22843 ft | 421 kts | 106° |
| 2026-05-06 13:28 | 50.44501 | 6.00710 | 22834 ft | 422 kts | 107° |
| 2026-05-06 13:28 | 50.43689 | 6.05132 | 22839 ft | 423 kts | 107° |
| 2026-05-06 13:28 | 50.42870 | 6.09572 | 22836 ft | 423 kts | 107° |
| 2026-05-06 13:29 | 50.42050 | 6.14012 | 22822 ft | 424 kts | 107° |
| 2026-05-06 13:29 | 50.41226 | 6.18460 | 22825 ft | 424 kts | 107° |
| 2026-05-06 13:29 | 50.40412 | 6.22836 | 22814 ft | 422 kts | 107° |
| 2026-05-06 13:29 | 50.39588 | 6.27261 | 22819 ft | 425 kts | 107° |
| 2026-05-06 13:30 | 50.38760 | 6.31703 | 22799 ft | 425 kts | 108° |
| 2026-05-06 13:30 | 50.37929 | 6.36147 | 22804 ft | 424 kts | 108° |
| 2026-05-06 13:30 | 50.37099 | 6.40571 | 22794 ft | 423 kts | 108° |
| 2026-05-06 13:30 | 50.36267 | 6.45000 | 22804 ft | 425 kts | 108° |
| 2026-05-06 13:31 | 50.35432 | 6.49437 | 22794 ft | 425 kts | 108° |
| 2026-05-06 13:31 | 50.34594 | 6.53875 | 22789 ft | 425 kts | 108° |
| 2026-05-06 13:31 | 50.33753 | 6.58316 | 22796 ft | 425 kts | 108° |
| 2026-05-06 13:31 | 50.32909 | 6.62760 | 22795 ft | 425 kts | 108° |
| 2026-05-06 13:32 | 50.32066 | 6.67189 | 22795 ft | 425 kts | 108° |
| 2026-05-06 13:32 | 50.31221 | 6.71624 | 22797 ft | 425 kts | 108° |
| 2026-05-06 13:32 | 50.30375 | 6.76052 | 22787 ft | 425 kts | 108° |
| 2026-05-06 13:32 | 50.29527 | 6.80479 | 22796 ft | 425 kts | 108° |
| 2026-05-06 13:33 | 50.28688 | 6.84847 | 22799 ft | 425 kts | 108° |
| 2026-05-06 13:33 | 50.27835 | 6.89276 | 22802 ft | 425 kts | 108° |
| 2026-05-06 13:33 | 50.26981 | 6.93713 | 22802 ft | 429 kts | 109° |
| 2026-05-06 13:33 | 50.26113 | 6.98204 | 22799 ft | 431 kts | 109° |
| 2026-05-06 13:34 | 50.25245 | 7.02682 | 22805 ft | 430 kts | 109° |
| 2026-05-06 13:34 | 50.24374 | 7.07162 | 22801 ft | 430 kts | 109° |
| 2026-05-06 13:34 | 50.23501 | 7.11644 | 22798 ft | 430 kts | 109° |
| 2026-05-06 13:34 | 50.22628 | 7.16116 | 22799 ft | 430 kts | 109° |
| 2026-05-06 13:35 | 50.21753 | 7.20586 | 22802 ft | 431 kts | 109° |
| 2026-05-06 13:35 | 50.20876 | 7.25058 | 22805 ft | 430 kts | 109° |
| 2026-05-06 13:35 | 50.19999 | 7.29526 | 22802 ft | 430 kts | 109° |
| 2026-05-06 13:35 | 50.19131 | 7.33933 | 22798 ft | 430 kts | 109° |
| 2026-05-06 13:36 | 50.18245 | 7.38400 | 22788 ft | 431 kts | 109° |
| 2026-05-06 13:36 | 50.17357 | 7.42868 | 22799 ft | 431 kts | 109° |
| 2026-05-06 13:36 | 50.16474 | 7.47331 | 22798 ft | 431 kts | 109° |
| 2026-05-06 13:36 | 50.15590 | 7.51792 | 22795 ft | 431 kts | 109° |
| 2026-05-06 13:37 | 50.14702 | 7.56257 | 22788 ft | 431 kts | 109° |
| 2026-05-06 13:37 | 50.13810 | 7.60728 | 22787 ft | 431 kts | 109° |
| 2026-05-06 13:37 | 50.12918 | 7.65186 | 22787 ft | 431 kts | 109° |
| 2026-05-06 13:37 | 50.12023 | 7.69645 | 22787 ft | 431 kts | 109° |
| 2026-05-06 13:38 | 50.11128 | 7.74097 | 22785 ft | 430 kts | 109° |
| 2026-05-06 13:38 | 50.10533 | 7.77049 | 22785 ft | 431 kts | 109° |
| 2026-05-06 13:38 | 50.09344 | 7.82941 | 22783 ft | 427 kts | 109° |
| 2026-05-06 13:38 | 50.08752 | 7.85864 | 22785 ft | 427 kts | 109° |
| 2026-05-06 13:39 | 50.07555 | 7.91764 | 22784 ft | 427 kts | 109° |
| 2026-05-06 13:39 | 50.06962 | 7.94684 | 22782 ft | 427 kts | 109° |
| 2026-05-06 13:39 | 50.06063 | 7.99096 | 22785 ft | 428 kts | 109° |
| 2026-05-06 13:39 | 50.05162 | 8.03509 | 22782 ft | 427 kts | 109° |
| 2026-05-06 13:40 | 50.03955 | 8.09406 | 22784 ft | 427 kts | 109° |
| 2026-05-06 13:40 | 50.03358 | 8.12318 | 22783 ft | 427 kts | 109° |
| 2026-05-06 13:40 | 50.02451 | 8.16731 | 22785 ft | 427 kts | 109° |
| 2026-05-06 13:40 | 50.01544 | 8.21132 | 22785 ft | 427 kts | 109° |
| 2026-05-06 13:41 | 50.00638 | 8.25525 | 22786 ft | 427 kts | 109° |
| 2026-05-06 13:41 | 49.99730 | 8.29913 | 22785 ft | 426 kts | 109° |
| 2026-05-06 13:41 | 49.98822 | 8.34294 | 22786 ft | 426 kts | 109° |
| 2026-05-06 13:41 | 49.97910 | 8.38682 | 22786 ft | 427 kts | 109° |
| 2026-05-06 13:42 | 49.96997 | 8.43070 | 22782 ft | 426 kts | 109° |
| 2026-05-06 13:42 | 49.96083 | 8.47458 | 22775 ft | 426 kts | 109° |
| 2026-05-06 13:42 | 49.95106 | 8.51746 | 22773 ft | 426 kts | 114° |
| 2026-05-06 13:42 | 49.93819 | 8.55930 | 22775 ft | 424 kts | 121° |
| 2026-05-06 13:43 | 49.92337 | 8.59884 | 22774 ft | 424 kts | 122° |
| 2026-05-06 13:43 | 49.90865 | 8.63841 | 22770 ft | 424 kts | 122° |
| 2026-05-06 13:43 | 49.89400 | 8.67809 | 22769 ft | 424 kts | 122° |
| 2026-05-06 13:43 | 49.87937 | 8.71780 | 22770 ft | 424 kts | 122° |
| 2026-05-06 13:44 | 49.86473 | 8.75746 | 22772 ft | 424 kts | 122° |
| 2026-05-06 13:44 | 49.85030 | 8.79643 | 22772 ft | 419 kts | 122° |
| 2026-05-06 13:44 | 49.83574 | 8.83560 | 22772 ft | 419 kts | 122° |
| 2026-05-06 13:44 | 49.82116 | 8.87476 | 22771 ft | 420 kts | 122° |
| 2026-05-06 13:45 | 49.80659 | 8.91384 | 22772 ft | 420 kts | 122° |
| 2026-05-06 13:45 | 49.77734 | 8.99223 | 22770 ft | 420 kts | 122° |
| 2026-05-06 13:45 | 49.76274 | 9.03134 | 22768 ft | 420 kts | 122° |
| 2026-05-06 13:46 | 49.74814 | 9.07037 | 22764 ft | 416 kts | 122° |
| 2026-05-06 13:46 | 49.73372 | 9.10892 | 22778 ft | 415 kts | 122° |
| 2026-05-06 13:46 | 49.71922 | 9.14754 | 22775 ft | 415 kts | 122° |
| 2026-05-06 13:46 | 49.70469 | 9.18615 | 22770 ft | 415 kts | 122° |
| 2026-05-06 13:47 | 49.69032 | 9.22431 | 22774 ft | 415 kts | 122° |
| 2026-05-06 13:47 | 49.67562 | 9.26332 | 22777 ft | 415 kts | 122° |
| 2026-05-06 13:47 | 49.66127 | 9.30133 | 22778 ft | 415 kts | 122° |
| 2026-05-06 13:47 | 49.64670 | 9.33984 | 22779 ft | 415 kts | 122° |
| 2026-05-06 13:48 | 49.63217 | 9.37823 | 22774 ft | 415 kts | 122° |
| 2026-05-06 13:48 | 49.61671 | 9.41578 | 22776 ft | 413 kts | 128° |
| 2026-05-06 13:48 | 49.59859 | 9.45011 | 22783 ft | 412 kts | 134° |
| 2026-05-06 13:48 | 49.57956 | 9.48304 | 22777 ft | 410 kts | 134° |
| 2026-05-06 13:49 | 49.56074 | 9.51590 | 22786 ft | 408 kts | 134° |
| 2026-05-06 13:49 | 49.54192 | 9.54882 | 22786 ft | 409 kts | 134° |
| 2026-05-06 13:49 | 49.52315 | 9.58166 | 22790 ft | 409 kts | 134° |
| 2026-05-06 13:49 | 49.50435 | 9.61451 | 22789 ft | 409 kts | 134° |
| 2026-05-06 13:50 | 49.48575 | 9.64699 | 22795 ft | 409 kts | 134° |
| 2026-05-06 13:50 | 49.46691 | 9.67983 | 22796 ft | 409 kts | 134° |
| 2026-05-06 13:50 | 49.44807 | 9.71264 | 22800 ft | 409 kts | 134° |
| 2026-05-06 13:50 | 49.42924 | 9.74539 | 22797 ft | 409 kts | 134° |
| 2026-05-06 13:51 | 49.41042 | 9.77810 | 22801 ft | 409 kts | 134° |
| 2026-05-06 13:51 | 49.39151 | 9.81090 | 22799 ft | 409 kts | 134° |
| 2026-05-06 13:51 | 49.37262 | 9.84363 | 22781 ft | 409 kts | 134° |
| 2026-05-06 13:51 | 49.35363 | 9.87644 | 22794 ft | 412 kts | 134° |
| 2026-05-06 13:52 | 49.33482 | 9.90887 | 22810 ft | 411 kts | 134° |
| 2026-05-06 13:52 | 49.31581 | 9.94163 | 22811 ft | 412 kts | 134° |
| 2026-05-06 13:52 | 49.29646 | 9.97493 | 22792 ft | 413 kts | 134° |
| 2026-05-06 13:52 | 49.27759 | 10.00737 | 22813 ft | 412 kts | 135° |
| 2026-05-06 13:53 | 49.25849 | 10.04015 | 22794 ft | 413 kts | 135° |
| 2026-05-06 13:53 | 49.23937 | 10.07294 | 22798 ft | 412 kts | 135° |
| 2026-05-06 13:53 | 49.22027 | 10.10563 | 22812 ft | 413 kts | 135° |
| 2026-05-06 13:53 | 49.20108 | 10.13844 | 22795 ft | 413 kts | 135° |
| 2026-05-06 13:54 | 49.18196 | 10.17114 | 22793 ft | 412 kts | 135° |
| 2026-05-06 13:54 | 49.16286 | 10.20383 | 22816 ft | 412 kts | 135° |
| 2026-05-06 13:54 | 49.14374 | 10.23655 | 22808 ft | 414 kts | 135° |
| 2026-05-06 13:54 | 49.12428 | 10.26912 | 22804 ft | 414 kts | 136° |
| 2026-05-06 13:55 | 49.10444 | 10.30101 | 22809 ft | 413 kts | 137° |
| 2026-05-06 13:55 | 49.08453 | 10.33267 | 22810 ft | 413 kts | 137° |
| 2026-05-06 13:55 | 49.06467 | 10.36429 | 22811 ft | 413 kts | 137° |
| 2026-05-06 13:55 | 49.04482 | 10.39598 | 22809 ft | 414 kts | 137° |
| 2026-05-06 13:56 | 49.02497 | 10.42774 | 22805 ft | 413 kts | 137° |
| 2026-05-06 13:56 | 49.00510 | 10.45953 | 22812 ft | 414 kts | 137° |
| 2026-05-06 13:56 | 48.98551 | 10.49084 | 22812 ft | 414 kts | 137° |
| 2026-05-06 13:56 | 48.96539 | 10.52291 | 22813 ft | 414 kts | 137° |
| 2026-05-06 13:57 | 48.94553 | 10.55454 | 22803 ft | 414 kts | 137° |
| 2026-05-06 13:57 | 48.92589 | 10.58579 | 22788 ft | 413 kts | 138° |
| 2026-05-06 13:57 | 48.90628 | 10.61708 | 22717 ft | 405 kts | 138° |
| 2026-05-06 13:57 | 48.88685 | 10.64800 | 22065 ft | 402 kts | 138° |
| 2026-05-06 13:58 | 48.86760 | 10.67851 | 21288 ft | 399 kts | 138° |
| 2026-05-06 13:58 | 48.84853 | 10.70871 | 20361 ft | 393 kts | 138° |
| 2026-05-06 13:58 | 48.82967 | 10.73853 | 19378 ft | 389 kts | 138° |
| 2026-05-06 13:58 | 48.81102 | 10.76800 | 18424 ft | 385 kts | 138° |
| 2026-05-06 13:59 | 48.79253 | 10.79714 | 17443 ft | 380 kts | 138° |
| 2026-05-06 13:59 | 48.77438 | 10.82568 | 16505 ft | 373 kts | 138° |
| 2026-05-06 13:59 | 48.75649 | 10.85376 | 15514 ft | 368 kts | 138° |
| 2026-05-06 13:59 | 48.73880 | 10.88147 | 14540 ft | 363 kts | 139° |
| 2026-05-06 14:00 | 48.72156 | 10.90845 | 13598 ft | 359 kts | 139° |
| 2026-05-06 14:00 | 48.70428 | 10.93541 | 12616 ft | 353 kts | 139° |
| 2026-05-06 14:00 | 48.68724 | 10.96197 | 11587 ft | 350 kts | 139° |
| 2026-05-06 14:00 | 48.67039 | 10.98817 | 10657 ft | 344 kts | 138° |
| 2026-05-06 14:01 | 48.65387 | 11.01382 | 10058 ft | 340 kts | 138° |
| 2026-05-06 14:01 | 48.63745 | 11.03930 | 9548 ft | 331 kts | 137° |
| 2026-05-06 14:01 | 48.62185 | 11.06360 | 9156 ft | 310 kts | 137° |
| 2026-05-06 14:01 | 48.60737 | 11.08614 | 8848 ft | 288 kts | 137° |
| 2026-05-06 14:02 | 48.59377 | 11.10727 | 8564 ft | 279 kts | 137° |
| 2026-05-06 14:02 | 48.57990 | 11.12797 | 8296 ft | 279 kts | 141° |
| 2026-05-06 14:02 | 48.56441 | 11.14521 | 8021 ft | 275 kts | 149° |
| 2026-05-06 14:02 | 48.54839 | 11.16106 | 7742 ft | 275 kts | 149° |
| 2026-05-06 14:03 | 48.53258 | 11.17724 | 7456 ft | 274 kts | 143° |
| 2026-05-06 14:03 | 48.52057 | 11.19942 | 7192 ft | 276 kts | 118° |
| 2026-05-06 14:03 | 48.51586 | 11.22710 | 6928 ft | 279 kts | 94° |
| 2026-05-06 14:03 | 48.51845 | 11.25604 | 6686 ft | 279 kts | 78° |
| 2026-05-06 14:04 | 48.52354 | 11.28427 | 6426 ft | 278 kts | 75° |
| 2026-05-06 14:04 | 48.52878 | 11.31232 | 6142 ft | 278 kts | 76° |
| 2026-05-06 14:04 | 48.53354 | 11.34039 | 5865 ft | 272 kts | 80° |
| 2026-05-06 14:04 | 48.53331 | 11.36852 | 5583 ft | 268 kts | 105° |
| 2026-05-06 14:05 | 48.52512 | 11.39341 | 5311 ft | 266 kts | 130° |
| 2026-05-06 14:05 | 48.51069 | 11.41006 | 5030 ft | 263 kts | 155° |
| 2026-05-06 14:05 | 48.49261 | 11.41555 | 4760 ft | 269 kts | 178° |
| 2026-05-06 14:05 | 48.47428 | 11.41047 | 4488 ft | 270 kts | 199° |
| 2026-05-06 14:06 | 48.45780 | 11.39669 | 4213 ft | 272 kts | 215° |
| 2026-05-06 14:06 | 48.44354 | 11.37783 | 4051 ft | 272 kts | 225° |
| 2026-05-06 14:06 | 48.43071 | 11.35809 | 3995 ft | 249 kts | 219° |
| 2026-05-06 14:06 | 48.41642 | 11.34744 | 4008 ft | 215 kts | 189° |
| 2026-05-06 14:07 | 48.40180 | 11.34877 | 4011 ft | 216 kts | 159° |
| 2026-05-06 14:07 | 48.38942 | 11.36120 | 4013 ft | 210 kts | 132° |
| 2026-05-06 14:07 | 48.38031 | 11.37807 | 4012 ft | 210 kts | 125° |
| 2026-05-06 14:07 | 48.37128 | 11.39525 | 4013 ft | 211 kts | 128° |
| 2026-05-06 14:08 | 48.36151 | 11.41153 | 4005 ft | 207 kts | 132° |
| 2026-05-06 14:08 | 48.35106 | 11.42682 | 4010 ft | 210 kts | 135° |
| 2026-05-06 14:08 | 48.34291 | 11.44480 | 4007 ft | 210 kts | 110° |
| 2026-05-06 14:08 | 48.34045 | 11.46608 | 3980 ft | 204 kts | 91° |
| 2026-05-06 14:09 | 48.34108 | 11.48738 | 3648 ft | 204 kts | 83° |
| 2026-05-06 14:09 | 48.34280 | 11.50824 | 3504 ft | 196 kts | 82° |
| 2026-05-06 14:09 | 48.34431 | 11.52801 | 3392 ft | 184 kts | 82° |
| 2026-05-06 14:09 | 48.34571 | 11.54608 | 3336 ft | 167 kts | 82° |
| 2026-05-06 14:10 | 48.34696 | 11.56238 | 3231 ft | 147 kts | 82° |
| 2026-05-06 14:10 | 48.34805 | 11.57686 | 3031 ft | 133 kts | 81° |
| 2026-05-06 14:10 | 48.34918 | 11.59123 | 3004 ft | 144 kts | 81° |
| 2026-05-06 14:10 | 48.35029 | 11.60556 | 2853 ft | 134 kts | 82° |
| 2026-05-06 14:11 | 48.35134 | 11.61953 | 2682 ft | 138 kts | 82° |
| 2026-05-06 14:11 | 48.35263 | 11.63556 | 2710 ft | 163 kts | 82° |
| 2026-05-06 14:11 | 48.35390 | 11.65247 | 2701 ft | 164 kts | 82° |
| 2026-05-06 14:11 | 48.35522 | 11.66966 | 2704 ft | 167 kts | 82° |
| 2026-05-06 14:12 | 48.35656 | 11.68681 | 2626 ft | 165 kts | 83° |
| 2026-05-06 14:12 | 48.35783 | 11.70394 | 2370 ft | 163 kts | 82° |
| 2026-05-06 14:12 | 48.35917 | 11.72089 | 2146 ft | 167 kts | 81° |
| 2026-05-06 14:12 | 48.36046 | 11.73795 | 1933 ft | 159 kts | 81° |
| 2026-05-06 14:13 | 48.36169 | 11.75485 | 1720 ft | 164 kts | 82° |
| 2026-05-06 14:13 | 48.36301 | 11.77132 | 1518 ft | 152 kts | 81° |
| 2026-05-06 14:13 | 48.36418 | 11.78586 | 1467 ft | 114 kts | 82° |
| 2026-05-06 14:13 | 48.36453 | 11.79146 | 1466 ft | 19 kts | 92° |
| 2026-05-06 14:14 | 48.36419 | 11.79365 | 1467 ft | 13 kts | 119° |
| 2026-05-06 14:14 | 48.36389 | 11.79467 | 1464 ft | 13 kts | 112° |
| 2026-05-06 14:14 | 48.36351 | 11.79606 | 1460 ft | 1 kts | 112° |
| 2026-05-06 14:14 | 48.36345 | 11.79627 | 1462 ft | 5 kts | 112° |
| 2026-05-06 14:15 | 48.36325 | 11.79700 | 1467 ft | 10 kts | 112° |
| 2026-05-06 14:15 | 48.36277 | 11.79791 | 1465 ft | 9 kts | 154° |
| 2026-05-06 14:15 | 48.36264 | 11.79787 | 1466 ft | 1 kts | 188° |
| 2026-05-06 14:15 | 48.36254 | 11.79774 | 1469 ft | 4 kts | 216° |
| 2026-05-06 14:16 | 48.36235 | 11.79712 | 1463 ft | 8 kts | 251° |
| 2026-05-06 14:16 | 48.36224 | 11.79610 | 1466 ft | 12 kts | 262° |
| 2026-05-06 14:16 | 48.36213 | 11.79470 | 1467 ft | 15 kts | 264° |
| 2026-05-06 14:16 | 48.36201 | 11.79297 | 1474 ft | 18 kts | 263° |
| 2026-05-06 14:17 | 48.36185 | 11.79096 | 1474 ft | 21 kts | 263° |
| 2026-05-06 14:17 | 48.36168 | 11.78869 | 1469 ft | 23 kts | 263° |
| 2026-05-06 14:17 | 48.36148 | 11.78617 | 1465 ft | 25 kts | 263° |
| 2026-05-06 14:17 | 48.36128 | 11.78340 | 1473 ft | 28 kts | 264° |
| 2026-05-06 14:18 | 48.36109 | 11.78115 | 1472 ft | 19 kts | 263° |
| 2026-05-06 14:18 | 48.36093 | 11.77903 | 1468 ft | 22 kts | 263° |
| 2026-05-06 14:18 | 48.36083 | 11.77771 | 1470 ft | 11 kts | 263° |
| 2026-05-06 14:18 | 48.36041 | 11.77672 | 1466 ft | 12 kts | 205° |
| 2026-05-06 14:19 | 48.36019 | 11.77669 | 1466 ft | 2 kts | 185° |
| 2026-05-06 14:19 | 48.35991 | 11.77669 | 1468 ft | 6 kts | 178° |
| 2026-05-06 14:19 | 48.35935 | 11.77678 | 1467 ft | 10 kts | 174° |
| 2026-05-06 14:19 | 48.35872 | 11.77688 | 1469 ft | 0 kts | 174° |
| 2026-05-06 14:20 | 48.35857 | 11.77690 | 1465 ft | 4 kts | 174° |
| 2026-05-06 14:20 | 48.35814 | 11.77697 | 1472 ft | 9 kts | 173° |
| 2026-05-06 14:20 | 48.35740 | 11.77710 | 1463 ft | 13 kts | 173° |
| 2026-05-06 14:20 | 48.35641 | 11.77727 | 1462 ft | 16 kts | 173° |
| 2026-05-06 14:21 | 48.35519 | 11.77749 | 1468 ft | 19 kts | 173° |
| 2026-05-06 14:21 | 48.35395 | 11.77771 | 1464 ft | 10 kts | 173° |
| 2026-05-06 14:21 | 48.35342 | 11.77835 | 1470 ft | 11 kts | 114° |
| 2026-05-06 14:21 | 48.35343 | 11.77958 | 1470 ft | 13 kts | 84° |
| 2026-05-06 14:22 | 48.35353 | 11.78082 | 1467 ft | 0 kts | 83° |
| 2026-05-06 14:22 | 48.35354 | 11.78101 | 1470 ft | 4 kts | 85° |
| 2026-05-06 14:22 | 48.35340 | 11.78138 | 1462 ft | 5 kts | 126° |
| 2026-05-06 14:22 | 48.35304 | 11.78162 | 1463 ft | 7 kts | 161° |
| 2026-05-06 14:23 | 48.35243 | 11.78176 | 1461 ft | 11 kts | 173° |
| 2026-05-06 14:23 | 48.35160 | 11.78192 | 1472 ft | 10 kts | 170° |
| 2026-05-06 14:23 | 48.35136 | 11.78220 | 1466 ft | 1 kts | 131° |
| 2026-05-06 14:23 | 48.35129 | 11.78243 | 1461 ft | 4 kts | 112° |
| 2026-05-06 14:24 | 48.35131 | 11.78298 | 1465 ft | 7 kts | 86° |
| 2026-05-06 14:24 | 48.35132 | 11.78323 | 1465 ft | 3 kts | 85° |
| 2026-05-06 14:24 | 48.35133 | 11.78332 | 1467 ft | 0 kts | 85° |
| 2026-05-06 14:24 | 48.35133 | 11.78339 | 1469 ft | 0 kts | 84° |